METAR Data
IDs: Format: Raw Decoded Include TAF

Data at: 1428 UTC 22 Apr 2021

KPMP 221353Z 01006KT 10SM OVC065 23/15 A3007 RMK AO2 SLP183 T02330150
KPMP 221253Z 35010KT 10SM FEW065 OVC085 22/14 A3005 RMK AO2 SLP175 T02220139
KPMP 221153Z 34009KT 10SM SCT065 OVC080 22/13 A3003 RMK AO2 SLP169 70023 T02170128 10233 20211 51014
KPMP 221053Z 36007KT 10SM SCT065 OVC090 22/12 A3002 RMK AO2 SLP165 T02170122
KPMP 220953Z AUTO 34011KT 10SM BKN060 BKN075 OVC090 22/12 A3001 RMK AO2 SLP162 T02170122
KPMP 220853Z AUTO 33010KT 10SM OVC075 22/14 A2999 RMK AO2 SLP155 T02220144 55001
KPMP 220753Z AUTO 32006KT 10SM OVC090 22/18 A2997 RMK AO2 SLP151 T02220178
KPMP 220653Z AUTO 31007KT 10SM OVC090 23/19 A2997 RMK AO2 SLP149 T02280189
KPMP 220553Z AUTO 30008KT 10SM CLR 23/20 A2999 RMK AO2 SLP156 T02330200 10256 20233 58004
KPMP 220453Z AUTO 29007KT 10SM CLR 24/21 A3000 RMK AO2 SLP160 T02390211 403060228
KPMP 220353Z AUTO 29004KT 10SM CLR 24/21 A3000 RMK AO2 SLP161 T02390211
KPMP 220253Z AUTO 28004KT 10SM CLR 24/21 A3000 RMK AO2 SLP160 T02440211 50010
KPMP 220153Z AUTO 26003KT 10SM CLR 25/21 A3001 RMK AO2 SLP161 T02500211
KPMP 220053Z AUTO 30004KT 10SM CLR 25/21 A2998 RMK AO2 SLP153 T02500211
KPMP 212353Z 30004KT 10SM SCT120 26/21 A2997 RMK AO2 SLP150 60023 T02560211 10283 20239 53005
KPMP 212253Z 29006KT 10SM FEW031 FEW120 SCT250 27/21 A2997 RMK AO2 SLP148 T02670211
KPMP 212153Z 21004KT 10SM FEW060 SCT120 OVC210 25/22 A2996 RMK AO2 SLP146 T02500222
KPMP 212053Z 17003KT 10SM SCT040 BKN055 BKN110 OVC250 24/22 A2996 RMK AO2 RAE47 SLP145 P0013 60023 T02440217 55012
KPMP 212015Z 26006KT 9SM -RA BKN036 BKN048 OVC070 24/22 A2997 RMK AO2 P0010 T02440217
KPMP 212008Z 27006KT 2 1/2SM -RA BR BKN038 BKN045 OVC055 24/22 A2996 RMK AO2 VIS 1 1/4V5 P0010 T02390222
KPMP 212002Z 31005KT 3/4SM RA BR SCT034 BKN042 OVC049 24/22 A2996 RMK AO2 P0009 T02390217
KPMP 211953Z 22006KT 1 1/4SM +RA SCT047 BKN060 OVC075 24/22 A2996 RMK AO2 RAB1857E10B41 TSB1855E11 SLP145 P0010 T02440217
KPMP 211949Z 18005KT 1 1/2SM +RA SCT047 BKN060 OVC075 25/22 A2995 RMK AO2 RAB1857E10B41 TSB1855E11 P0007
KPMP 211917Z 00000KT 10SM SCT026 BKN065 26/21 A2996 RMK AO2 LTG DSNT SE AND S RAB1857E10 TSB1855E11 P0000 T02560211
KPMP 211901Z 18006KT 8SM -TSRA SCT026 SCT034 OVC047 26/21 A2997 RMK AO2 LTG DSNT SE AND S RAB1857 TSB1855 P0000 T02610206
KPMP 211853Z 30005KT 10SM SCT026 SCT038 BKN065 27/21 A2997 RMK AO2 LTG DSNT S TSB38E52 SLP151 T02670206
KPMP 211844Z 33005KT 10SM TS SCT025 BKN038 OVC050 27/21 A2998 RMK AO2 LTG DSNT S TSB38 T02670206
KPMP 211833Z 32007KT 10SM VCTS FEW025 BKN039 OVC055 27/21 A2998 RMK AO2 LTG DSNT SW T02670206
KPMP 211753Z 33009KT 10SM FEW036 BKN065 BKN080 28/21 A2999 RMK AO2 WSHFT 1640 RAB39E49 SLP157 P0000 60000 T02780206 10306 20233 58003
KPMP 211700Z 36008KT 10SM FEW033 SCT041 BKN065 29/21 A2998 RMK AO2 WSHFT 1640 T02890211
KPMP 211653Z 33014KT 10SM FEW034 SCT040 SCT049 29/21 A2999 RMK AO2 WSHFT 1638 SLP157 T02890206
KPMP 211553Z 26010KT 10SM FEW040 29/19 A3000 RMK AO2 SLP160 T02890194
KPMP 211453Z 23006KT 10SM BKN200 28/19 A3000 RMK AO2 SLP160 T02830194 51003
KPMP 211353Z 28007KT 10SM CLR 27/20 A3000 RMK AO2 SLP158 T02670200
KPMP 211253Z 24005KT 10SM FEW070 24/20 A3000 RMK AO2 SLP159 T02390200
KPMP 211153Z 25005KT 10SM CLR 23/20 A2999 RMK AO2 SLP156 T02330200 10244 20228 53011
KPMP 211053Z 27005KT 8SM CLR 23/21 A2997 RMK AO2 LTG DSNT E-S SLP148 T02280211
KPMP 210953Z AUTO 27005KT 7SM BKN039 BKN046 OVC055 23/22 A2996 RMK AO2 LTG DSNT SE AND S SLP147 T02330217
KPMP 210918Z AUTO 28006KT 6SM BR SCT024 SCT037 23/22 A2996 RMK AO2 LTG DSNT E T02330222
KPMP 210853Z AUTO 24003KT 6SM BR BKN023 BKN039 24/22 A2996 RMK AO2 SLP146 T02390222 55002
KPMP 210753Z AUTO 28003KT 6SM BR SCT015 OVC095 24/22 A2995 RMK AO2 SLP143 T02390222
KPMP 210653Z AUTO 25003KT 7SM BKN025 BKN050 OVC075 24/22 A2996 RMK AO2 SLP146 T02440222
KPMP 210627Z AUTO 22004KT 7SM BKN025 24/22 A2996 RMK AO2 T02440217
KPMP 210553Z AUTO 19003KT 7SM FEW034 24/22 A2997 RMK AO2 SLP148 T02440217 10267 20244 58004
KPMP 210517Z AUTO 20004KT 8SM FEW023 OVC030 24/22 A2998 RMK AO2 T02440217
KPMP 210453Z AUTO 00000KT 8SM SCT022 OVC029 24/22 A2998 RMK AO2 SLP152 T02440217 402940206
KPMP 210353Z AUTO 00000KT 8SM BKN029 24/22 A2998 RMK AO2 SLP154 T02440217
KPMP 210311Z AUTO 00000KT 8SM BKN029 24/21 A2998 RMK AO2 T02440211
KPMP 210253Z AUTO 00000KT 8SM FEW031 24/21 A2998 RMK AO2 SLP152 T02440211 53015